Aviation Digital Data Service (ADDS)

Output produced by METARs form (1708 UTC 21 September 2019)
found at http://aviationweather.gov/metar/data/
 
KLBX 211524Z 2115/2212 15012KT P6SM VCSH SCT025 BKN035 
     FM211900 14013KT P6SM SCT035 SCT250 
     FM220100 13006KT P6SM SCT025 SCT250